Time;durP1;ratioP1;P1;durP2;ratioP2;P2;SDS_P1;SDS_P2;PMS_P1;PMS_P2;Temp;Humidity;BMP_temperature;BMP_pressure;BME280_temperature;BME280_humidity;BME280_pressure;Samples;Min_cycle;Max_cycle;Signal;HPM_P1;HPM_P2
2023/12/14 00:01:22;;;;;;;17.10;7.15;;;4.50;99.90;;;;;;4932283;29;20134;-78
2023/12/14 00:03:48;;;;;;;15.88;8.48;;;5.10;99.90;;;;;;4933697;29;20079;-77
2023/12/14 00:06:14;;;;;;;17.92;7.30;;;4.60;99.90;;;;;;4931881;29;20043;-83
2023/12/14 00:08:40;;;;;;;11.25;6.50;;;4.50;99.90;;;;;;4932358;29;20111;-76
2023/12/14 00:11:10;;;;;;;19.65;6.53;;;4.50;99.90;;;;;;4932283;29;20055;-76
2023/12/14 00:13:36;;;;;;;16.10;7.45;;;4.50;99.90;;;;;;4933603;29;20055;-77
2023/12/14 00:16:02;;;;;;;17.75;7.25;;;4.50;99.90;;;;;;4932457;29;20116;-77
2023/12/14 00:18:28;;;;;;;16.42;7.97;;;4.40;99.90;;;;;;4932145;29;20066;-77
2023/12/14 00:20:54;;;;;;;14.05;7.30;;;4.50;99.90;;;;;;4932942;29;20408;-76
2023/12/14 00:23:23;;;;;;;19.58;7.30;;;4.40;99.90;;;;;;4931984;29;20126;-77
2023/12/14 00:25:49;;;;;;;9.35;5.97;;;4.50;99.90;;;;;;4933415;29;20051;-77
2023/12/14 00:28:15;;;;;;;14.55;7.03;;;5.00;99.90;;;;;;4930484;29;20865;-90
2023/12/14 00:30:41;;;;;;;10.32;6.03;;;4.40;99.90;;;;;;4933192;29;20126;-76
2023/12/14 00:33:10;;;;;;;9.50;5.35;;;4.50;99.90;;;;;;4932850;29;20111;-80
2023/12/14 00:35:38;;;;;;;13.32;6.05;;;4.40;99.90;;;;;;4932836;29;20043;-88
2023/12/14 00:38:04;;;;;;;13.88;6.13;;;5.10;99.90;;;;;;4931142;29;20055;-77
2023/12/14 00:40:29;;;;;;;11.32;5.53;;;5.20;99.90;;;;;;4933050;29;20127;-77
2023/12/14 00:42:55;;;;;;;11.82;5.78;;;4.30;99.90;;;;;;4933111;29;20087;-75
2023/12/14 00:45:20;;;;;;;13.57;5.90;;;4.40;99.90;;;;;;4932902;29;20070;-77
2023/12/14 00:47:46;;;;;;;12.80;5.22;;;4.40;99.90;;;;;;4932899;29;20047;-78
2023/12/14 00:50:12;;;;;;;10.98;5.68;;;4.30;99.90;;;;;;4930060;29;20055;-77
2023/12/14 00:52:37;;;;;;;10.10;5.32;;;4.30;99.90;;;;;;4931512;29;20055;-80
2023/12/14 00:55:04;;;;;;;9.07;5.25;;;4.30;99.90;;;;;;4931177;29;20047;-78
2023/12/14 00:57:29;;;;;;;8.65;5.60;;;4.30;99.90;;;;;;4932702;29;20082;-79
2023/12/14 00:59:55;;;;;;;9.73;5.38;;;4.30;99.90;;;;;;4930576;29;20488;-79
2023/12/14 01:02:21;;;;;;;11.43;5.20;;;4.30;99.90;;;;;;4931417;29;20556;-76
2023/12/14 01:04:47;;;;;;;12.98;5.55;;;4.30;99.90;;;;;;4932688;29;20046;-81
2023/12/14 01:07:12;;;;;;;7.40;4.70;;;5.00;99.90;;;;;;4915797;29;20055;-76
2023/12/14 01:09:38;;;;;;;10.48;5.70;;;4.30;99.90;;;;;;4932733;29;20380;-77
2023/12/14 01:12:04;;;;;;;6.60;4.78;;;4.30;99.90;;;;;;4926471;29;20458;-76
2023/12/14 01:14:30;;;;;;;10.38;4.82;;;4.30;99.90;;;;;;4931634;29;20126;-76
2023/12/14 01:16:55;;;;;;;12.13;5.20;;;4.30;99.90;;;;;;4923570;29;20511;-79
2023/12/14 01:19:21;;;;;;;9.05;5.20;;;4.80;99.90;;;;;;4927285;29;20086;-77
2023/12/14 01:21:47;;;;;;;8.57;4.78;;;4.20;99.90;;;;;;4915332;29;20503;-76
2023/12/14 01:24:14;;;;;;;8.73;5.15;;;4.30;99.90;;;;;;4932247;29;20067;-77
2023/12/14 01:26:39;;;;;;;9.70;4.90;;;3.70;99.90;;;;;;4932296;29;20127;-77
2023/12/14 01:29:05;;;;;;;10.80;5.80;;;4.20;99.90;;;;;;4930473;29;20135;-76
2023/12/14 01:31:31;;;;;;;7.75;4.97;;;4.60;99.90;;;;;;4932586;29;20059;-76
2023/12/14 01:33:57;;;;;;;10.48;5.65;;;4.30;99.90;;;;;;4927375;29;20531;-74
2023/12/14 01:36:24;;;;;;;10.15;5.70;;;4.20;99.90;;;;;;4932243;29;20661;-76
2023/12/14 01:38:50;;;;;;;10.27;5.85;;;4.20;99.90;;;;;;4930979;29;20059;-77
2023/12/14 01:41:16;;;;;;;9.50;4.93;;;4.30;99.90;;;;;;4932399;29;20640;-77
2023/12/14 01:43:42;;;;;;;14.95;6.05;;;4.20;99.90;;;;;;4932738;29;20051;-76
2023/12/14 01:46:08;;;;;;;11.38;6.68;;;4.20;99.90;;;;;;4932284;29;20391;-80
2023/12/14 01:48:33;;;;;;;10.90;6.68;;;4.20;99.90;;;;;;4932396;29;20051;-76
2023/12/14 01:50:59;;;;;;;15.27;6.80;;;4.20;99.90;;;;;;4930530;29;20051;-76
2023/12/14 01:53:25;;;;;;;12.93;7.97;;;4.50;99.90;;;;;;4932052;29;20054;-77
2023/12/14 01:55:50;;;;;;;20.70;7.20;;;4.20;99.90;;;;;;4932341;29;20048;-76
2023/12/14 01:58:16;;;;;;;17.67;7.57;;;4.20;99.90;;;;;;4930797;29;20056;-84
2023/12/14 02:01:03;;;;;;;16.25;8.13;;;5.00;99.90;;;;;;4925829;29;20047;-82
2023/12/14 02:03:29;;;;;;;17.35;8.10;;;4.20;99.90;;;;;;4932215;29;20047;-82
2023/12/14 02:05:55;;;;;;;14.82;7.78;;;4.30;99.90;;;;;;4931915;29;20570;-76
2023/12/14 02:08:20;;;;;;;17.85;7.80;;;4.30;99.90;;;;;;4932288;29;20047;-81
2023/12/14 02:10:48;;;;;;;14.43;7.80;;;4.30;99.90;;;;;;4929379;29;20032;-84
2023/12/14 02:13:13;;;;;;;16.80;8.43;;;4.20;99.90;;;;;;4930585;29;20055;-80
2023/12/14 02:15:39;;;;;;;15.25;7.93;;;4.30;99.90;;;;;;4931886;29;20044;-80
2023/12/14 02:18:05;;;;;;;21.27;8.50;;;4.30;99.90;;;;;;4930457;29;20053;-78
2023/12/14 02:20:30;;;;;;;19.02;8.90;;;4.30;99.90;;;;;;4928171;29;20709;-76
2023/12/14 02:22:56;;;;;;;15.02;8.15;;;4.30;99.90;;;;;;4931565;29;20719;-83
2023/12/14 02:25:23;;;;;;;18.13;8.35;;;4.30;99.90;;;;;;4932243;29;20052;-77
2023/12/14 02:27:51;;;;;;;20.08;8.70;;;4.30;99.90;;;;;;4930450;29;20060;-80
2023/12/14 02:30:17;;;;;;;17.20;8.80;;;4.30;99.90;;;;;;4930494;29;20159;-77
2023/12/14 02:32:43;;;;;;;18.98;8.60;;;4.50;99.90;;;;;;4933966;29;20147;-79
2023/12/14 02:35:09;;;;;;;17.75;8.02;;;4.30;99.90;;;;;;4918421;29;20131;-76
2023/12/14 02:37:40;;;;;;;17.33;8.50;;;5.00;99.90;;;;;;4934088;29;20062;-77
2023/12/14 02:40:07;;;;;;;23.88;8.63;;;4.40;99.90;;;;;;4932682;29;20055;-77
2023/12/14 02:42:33;;;;;;;17.33;8.23;;;4.30;99.90;;;;;;4935378;29;20047;-76
2023/12/14 02:44:59;;;;;;;15.35;7.90;;;4.30;99.90;;;;;;4935095;29;20399;-78
2023/12/14 02:47:24;;;;;;;16.15;8.52;;;4.30;99.90;;;;;;4927225;29;20039;-79
2023/12/14 02:49:50;;;;;;;17.75;8.50;;;4.30;99.90;;;;;;4932447;29;20122;-83
2023/12/14 02:52:15;;;;;;;17.67;8.50;;;4.30;99.90;;;;;;4933287;29;20043;-79
2023/12/14 02:54:41;;;;;;;15.73;8.27;;;4.20;99.90;;;;;;4933546;29;20058;-77
2023/12/14 02:57:07;;;;;;;16.27;7.32;;;4.20;99.90;;;;;;4933429;29;20407;-77
2023/12/14 02:59:33;;;;;;;18.45;7.47;;;4.30;99.90;;;;;;4934485;29;20047;-80
2023/12/14 03:01:58;;;;;;;14.48;7.75;;;4.30;99.90;;;;;;4930226;29;20484;-79
2023/12/14 03:04:24;;;;;;;16.75;8.45;;;4.30;99.90;;;;;;4917576;29;20062;-76
2023/12/14 03:06:50;;;;;;;14.43;7.68;;;4.30;99.90;;;;;;4933930;29;20082;-77
2023/12/14 03:09:15;;;;;;;18.27;8.35;;;4.30;99.90;;;;;;4930735;29;20070;-75
2023/12/14 03:11:41;;;;;;;14.35;7.68;;;4.30;99.90;;;;;;4931823;29;20099;-76
2023/12/14 03:14:07;;;;;;;15.68;7.57;;;4.30;99.90;;;;;;4933054;29;20047;-77
2023/12/14 03:16:35;;;;;;;18.27;7.63;;;4.50;99.90;;;;;;4932007;29;20047;-76
2023/12/14 03:19:01;;;;;;;16.23;8.15;;;4.30;99.90;;;;;;4933651;29;20047;-76
2023/12/14 03:21:27;;;;;;;15.15;8.13;;;4.30;99.90;;;;;;4936107;23;20370;-76
2023/12/14 03:23:53;;;;;;;16.23;7.95;;;4.20;99.90;;;;;;4912915;29;20048;-75
2023/12/14 03:26:19;;;;;;;16.25;7.30;;;4.30;99.90;;;;;;4914505;29;20047;-76
2023/12/14 03:28:44;;;;;;;15.00;7.35;;;4.30;99.90;;;;;;4915338;29;20072;-83
2023/12/14 03:31:13;;;;;;;15.10;7.13;;;4.30;99.90;;;;;;4915002;29;20044;-77
2023/12/14 03:33:40;;;;;;;16.42;6.97;;;4.80;99.90;;;;;;4914994;29;20127;-79
2023/12/14 03:36:06;;;;;;;13.10;7.00;;;4.60;99.90;;;;;;4911375;29;20084;-76
2023/12/14 03:38:33;;;;;;;17.45;7.85;;;4.30;99.90;;;;;;4915427;29;20044;-77
2023/12/14 03:40:59;;;;;;;15.48;7.50;;;4.70;99.90;;;;;;4915496;29;20178;-77
2023/12/14 03:43:25;;;;;;;13.18;7.25;;;4.30;99.90;;;;;;4914806;29;20048;-80
2023/12/14 03:45:51;;;;;;;15.38;7.30;;;4.30;99.90;;;;;;4914090;29;20079;-78
2023/12/14 03:48:16;;;;;;;19.63;7.75;;;4.50;99.90;;;;;;4914852;29;20072;-82
2023/12/14 03:50:42;;;;;;;17.45;7.90;;;4.50;99.90;;;;;;4914761;29;20048;-84
2023/12/14 03:53:08;;;;;;;17.60;7.32;;;4.30;99.90;;;;;;4914712;29;20052;-76
2023/12/14 03:55:34;;;;;;;18.80;8.50;;;4.30;99.90;;;;;;4914941;29;20047;-77
2023/12/14 03:57:59;;;;;;;16.02;7.80;;;4.30;99.90;;;;;;4910636;29;20440;-78
2023/12/14 04:00:25;;;;;;;15.48;7.32;;;4.30;99.90;;;;;;4912853;29;20428;-80
2023/12/14 04:02:51;;;;;;;18.15;7.45;;;4.30;99.90;;;;;;4905772;29;20066;-77
2023/12/14 04:05:17;;;;;;;14.93;6.93;;;4.30;99.90;;;;;;4909113;29;20472;-80
2023/12/14 04:07:42;;;;;;;15.63;7.30;;;4.30;99.90;;;;;;4914364;29;20391;-77
2023/12/14 04:10:10;;;;;;;18.92;7.30;;;5.00;99.90;;;;;;4913711;29;20119;-77
2023/12/14 04:12:36;;;;;;;22.90;9.02;;;4.30;99.90;;;;;;4908131;29;20106;-83
2023/12/14 04:15:03;;;;;;;18.48;8.52;;;4.30;99.90;;;;;;4910315;29;20058;-77
2023/12/14 04:17:30;;;;;;;18.00;9.20;;;4.40;99.90;;;;;;4914100;29;20054;-81
2023/12/14 04:19:55;;;;;;;20.15;8.57;;;4.70;99.90;;;;;;4914057;29;20415;-77
2023/12/14 04:22:21;;;;;;;19.13;8.52;;;4.30;99.90;;;;;;4913385;29;20068;-82
2023/12/14 04:24:47;;;;;;;23.65;8.70;;;4.40;99.90;;;;;;4906625;29;20051;-77
2023/12/14 04:27:12;;;;;;;15.68;8.70;;;4.40;99.90;;;;;;4912550;29;20063;-78
2023/12/14 04:29:38;;;;;;;23.40;8.80;;;4.30;99.90;;;;;;4914066;29;20486;-77
2023/12/14 04:32:05;;;;;;;20.73;9.20;;;4.40;99.90;;;;;;4913405;29;20091;-85
2023/12/14 04:34:30;;;;;;;15.05;8.75;;;4.40;99.90;;;;;;4910109;29;20056;-76
2023/12/14 04:36:57;;;;;;;19.17;8.80;;;4.40;99.90;;;;;;4913541;29;20059;-76
2023/12/14 04:39:26;;;;;;;15.98;9.02;;;4.30;99.90;;;;;;4913330;29;20119;-80
2023/12/14 04:41:53;;;;;;;21.88;9.57;;;4.40;99.90;;;;;;4913373;29;20059;-81
2023/12/14 04:44:19;;;;;;;16.23;8.77;;;4.30;99.90;;;;;;4913970;29;20052;-78
2023/12/14 04:46:44;;;;;;;19.55;8.88;;;4.30;99.90;;;;;;4913933;29;20047;-88
2023/12/14 04:49:10;;;;;;;18.58;9.38;;;4.30;99.90;;;;;;4912466;29;20040;-84
2023/12/14 04:51:36;;;;;;;21.17;9.13;;;4.30;99.90;;;;;;4912340;29;20040;-78
2023/12/14 04:54:02;;;;;;;20.90;9.27;;;4.30;99.90;;;;;;4908761;29;20048;-77
2023/12/14 04:56:28;;;;;;;20.02;10.13;;;4.30;99.90;;;;;;4911510;29;20044;-78
2023/12/14 04:58:53;;;;;;;16.77;9.05;;;4.30;99.90;;;;;;4907749;29;20114;-83
2023/12/14 05:01:19;;;;;;;19.02;9.02;;;4.30;99.90;;;;;;4910483;29;20052;-77
2023/12/14 05:03:44;;;;;;;19.35;9.65;;;4.30;99.90;;;;;;4910425;29;20127;-77
2023/12/14 05:06:10;;;;;;;19.58;10.00;;;4.30;99.90;;;;;;4912863;29;20040;-85
2023/12/14 05:08:36;;;;;;;21.88;8.95;;;4.30;99.90;;;;;;4906657;29;20075;-82
2023/12/14 05:11:02;;;;;;;19.02;9.25;;;4.30;99.90;;;;;;4913831;29;20135;-77
2023/12/14 05:13:28;;;;;;;16.88;9.18;;;4.30;99.90;;;;;;4905915;29;20040;-81
2023/12/14 05:15:53;;;;;;;19.75;9.82;;;4.30;99.90;;;;;;4914440;29;20651;-76
2023/12/14 05:18:19;;;;;;;18.15;9.40;;;4.90;99.90;;;;;;4912801;29;20088;-79
2023/12/14 05:20:45;;;;;;;24.35;9.48;;;4.30;99.90;;;;;;4911047;29;20127;-77
2023/12/14 05:23:12;;;;;;;17.95;9.70;;;4.30;99.90;;;;;;4913248;29;20515;-77
2023/12/14 05:25:38;;;;;;;19.98;9.15;;;4.30;99.90;;;;;;4909790;29;20041;-78
2023/12/14 05:28:04;;;;;;;18.15;9.10;;;4.30;99.90;;;;;;4905659;29;20107;-76
2023/12/14 05:30:29;;;;;;;25.45;9.30;;;4.30;99.90;;;;;;4911552;29;20051;-76
2023/12/14 05:32:55;;;;;;;16.45;9.13;;;4.30;99.90;;;;;;4899969;29;20048;-77
2023/12/14 05:35:21;;;;;;;14.45;7.95;;;4.30;99.90;;;;;;4912391;29;20048;-78
2023/12/14 05:37:48;;;;;;;22.08;8.98;;;4.30;99.90;;;;;;4912989;29;20051;-82
2023/12/14 05:40:14;;;;;;;15.65;9.23;;;4.20;99.90;;;;;;4911463;29;20805;-77
2023/12/14 05:42:39;;;;;;;23.13;9.35;;;4.20;99.90;;;;;;4913541;29;20130;-77
2023/12/14 05:45:08;;;;;;;22.40;10.02;;;4.20;99.90;;;;;;4907359;29;20047;-80
2023/12/14 05:47:34;;;;;;;21.83;9.35;;;4.20;99.90;;;;;;4913035;29;20127;-77
2023/12/14 05:50:01;;;;;;;22.33;10.00;;;4.20;99.90;;;;;;4912789;29;20127;-78
2023/12/14 05:52:26;;;;;;;23.90;9.93;;;4.30;99.90;;;;;;4910493;29;20048;-78
2023/12/14 05:54:52;;;;;;;24.10;10.65;;;4.20;99.90;;;;;;4909761;29;20044;-78
2023/12/14 05:57:17;;;;;;;19.05;9.40;;;4.30;99.90;;;;;;4910466;29;20040;-77
2023/12/14 05:59:43;;;;;;;20.33;9.55;;;4.30;99.90;;;;;;4907586;29;20075;-78
2023/12/14 06:02:09;;;;;;;20.17;9.45;;;4.30;99.90;;;;;;4912358;29;20131;-77
2023/12/14 06:04:34;;;;;;;21.95;10.35;;;4.30;99.90;;;;;;4906881;29;20404;-78
2023/12/14 06:07:00;;;;;;;19.40;9.65;;;4.30;99.90;;;;;;4911871;29;20096;-77
2023/12/14 06:09:33;;;;;;;16.58;9.07;;;4.30;99.90;;;;;;4896139;29;20411;-80
2023/12/14 06:12:01;;;;;;;19.10;8.95;;;4.30;99.90;;;;;;4916899;29;20080;-78
2023/12/14 06:14:26;;;;;;;20.75;9.40;;;4.20;99.90;;;;;;4915815;29;20143;-79
2023/12/14 06:16:52;;;;;;;22.40;9.70;;;4.30;99.90;;;;;;4914366;29;20119;-77
2023/12/14 06:19:18;;;;;;;21.67;9.80;;;4.30;99.90;;;;;;4914187;29;20056;-79
2023/12/14 06:21:43;;;;;;;20.25;10.25;;;4.30;99.90;;;;;;4909965;29;20056;-81
2023/12/14 06:24:09;;;;;;;17.88;9.70;;;4.40;99.90;;;;;;4915417;29;20048;-78
2023/12/14 06:26:35;;;;;;;18.50;9.30;;;4.30;99.90;;;;;;4894838;29;20058;-84
2023/12/14 06:29:01;;;;;;;17.02;9.50;;;4.80;99.90;;;;;;4904824;29;20148;-80
2023/12/14 06:31:26;;;;;;;18.95;8.93;;;4.30;99.90;;;;;;4911714;29;20048;-79
2023/12/14 06:33:52;;;;;;;23.60;9.80;;;4.30;99.90;;;;;;4919275;29;20100;-84
2023/12/14 06:36:17;;;;;;;19.23;9.68;;;4.30;99.90;;;;;;4914727;29;20044;-83
2023/12/14 06:38:43;;;;;;;20.55;9.50;;;4.80;99.90;;;;;;4915211;29;20052;-85
2023/12/14 06:41:19;;;;;;;23.83;10.07;;;4.50;99.90;;;;;;4909444;29;20099;-85
2023/12/14 06:43:44;;;;;;;22.42;9.27;;;4.90;99.90;;;;;;4910914;29;20059;-84
2023/12/14 06:46:10;;;;;;;22.15;9.27;;;4.80;99.90;;;;;;4914088;29;20047;-85
2023/12/14 06:48:35;;;;;;;20.63;9.75;;;4.30;99.90;;;;;;4911830;29;20044;-83
2023/12/14 06:51:01;;;;;;;20.77;9.52;;;4.30;99.90;;;;;;4915337;29;20424;-86
2023/12/14 06:53:27;;;;;;;19.13;9.10;;;4.30;99.90;;;;;;4910626;29;20998;-78
2023/12/14 06:55:52;;;;;;;19.15;9.73;;;4.90;99.90;;;;;;4915603;29;20128;-77
2023/12/14 06:58:18;;;;;;;19.95;9.38;;;4.30;99.90;;;;;;4915824;29;20043;-77
2023/12/14 07:00:44;;;;;;;21.23;9.32;;;4.50;99.90;;;;;;4913989;29;20396;-76
2023/12/14 07:03:09;;;;;;;22.08;10.15;;;4.30;99.90;;;;;;4915673;29;20044;-77
2023/12/14 07:05:38;;;;;;;21.25;10.00;;;4.40;99.90;;;;;;4912256;29;20063;-78
2023/12/14 07:08:03;;;;;;;20.40;10.23;;;4.30;99.90;;;;;;4915741;29;20088;-78
2023/12/14 07:10:29;;;;;;;21.15;9.85;;;4.30;99.90;;;;;;4915021;29;20112;-77
2023/12/14 07:12:55;;;;;;;21.05;9.95;;;5.00;99.90;;;;;;4915054;29;20063;-79
2023/12/14 07:15:21;;;;;;;26.00;9.95;;;4.30;99.90;;;;;;4915369;29;20054;-76
2023/12/14 07:17:46;;;;;;;24.73;11.10;;;4.30;99.90;;;;;;4914832;29;20055;-77
2023/12/14 07:20:12;;;;;;;19.10;9.48;;;4.40;99.90;;;;;;4915604;29;20056;-80
2023/12/14 07:22:38;;;;;;;20.02;10.27;;;4.30;99.90;;;;;;4912162;29;20059;-77
2023/12/14 07:25:04;;;;;;;28.00;10.77;;;4.40;99.90;;;;;;4915568;29;20072;-77
2023/12/14 07:27:29;;;;;;;23.92;9.60;;;4.30;99.90;;;;;;4914945;29;20044;-77
2023/12/14 07:29:55;;;;;;;17.70;9.55;;;4.30;99.90;;;;;;4915755;29;20281;-76
2023/12/14 07:32:21;;;;;;;20.80;10.35;;;4.40;99.90;;;;;;4915513;29;20044;-77
2023/12/14 07:34:47;;;;;;;23.75;9.77;;;4.30;99.90;;;;;;4912622;29;20103;-78
2023/12/14 07:37:13;;;;;;;19.02;9.65;;;4.30;99.90;;;;;;4915039;29;20242;-79
2023/12/14 07:39:38;;;;;;;21.63;10.23;;;4.30;99.90;;;;;;4915100;29;20719;-78
2023/12/14 07:42:05;;;;;;;21.30;10.57;;;4.30;99.90;;;;;;4914803;29;20052;-77
2023/12/14 07:44:31;;;;;;;19.23;10.00;;;4.40;99.90;;;;;;4912907;29;20044;-80
2023/12/14 07:47:00;;;;;;;18.70;9.52;;;4.40;99.90;;;;;;4915120;29;20115;-78
2023/12/14 07:49:26;;;;;;;26.77;11.43;;;4.40;99.90;;;;;;4915341;29;20063;-77
2023/12/14 07:51:51;;;;;;;33.50;10.65;;;5.20;99.90;;;;;;4915175;29;20489;-77
2023/12/14 07:54:18;;;;;;;22.80;9.70;;;4.90;99.90;;;;;;4913171;29;20407;-77
2023/12/14 07:56:44;;;;;;;26.00;10.70;;;4.30;99.90;;;;;;4910385;29;20403;-77
2023/12/14 07:59:10;;;;;;;24.95;11.18;;;4.30;99.90;;;;;;4914626;29;20178;-77
2023/12/14 08:01:36;;;;;;;26.13;10.15;;;5.10;99.90;;;;;;4914977;29;20127;-77
2023/12/14 08:04:03;;;;;;;22.02;10.75;;;4.30;99.90;;;;;;4914759;29;20524;-78
2023/12/14 08:06:29;;;;;;;18.98;9.57;;;4.40;99.90;;;;;;4912196;29;20052;-78
2023/12/14 08:08:57;;;;;;;22.05;9.70;;;4.70;99.90;;;;;;4914963;29;20396;-80
2023/12/14 08:11:23;;;;;;;20.95;10.10;;;4.80;99.90;;;;;;4914490;29;20507;-83
2023/12/14 08:13:49;;;;;;;21.65;10.23;;;5.00;99.90;;;;;;4914188;29;20480;-77
2023/12/14 08:16:17;;;;;;;20.73;10.27;;;4.80;99.90;;;;;;4910395;29;20061;-78
2023/12/14 08:18:44;;;;;;;22.27;10.50;;;4.70;99.90;;;;;;4913187;29;20115;-77
2023/12/14 08:21:10;;;;;;;24.73;9.73;;;4.40;99.90;;;;;;4914660;29;20151;-80
2023/12/14 08:23:36;;;;;;;21.60;10.88;;;4.40;99.90;;;;;;4914311;29;20151;-78
2023/12/14 08:26:02;;;;;;;22.50;10.15;;;4.40;99.90;;;;;;4913811;29;20090;-80
2023/12/14 08:28:28;;;;;;;22.23;10.68;;;4.40;99.90;;;;;;4909987;29;20500;-80
2023/12/14 08:30:53;;;;;;;19.27;10.30;;;4.50;99.90;;;;;;4914104;29;20154;-78
2023/12/14 08:33:19;;;;;;;19.45;10.23;;;4.60;99.90;;;;;;4913064;29;20056;-78
2023/12/14 08:35:45;;;;;;;22.05;9.82;;;5.10;99.90;;;;;;4914175;29;20412;-79
2023/12/14 08:38:11;;;;;;;20.88;10.77;;;4.50;99.90;;;;;;4907876;29;20080;-79
2023/12/14 08:40:37;;;;;;;22.63;10.80;;;4.40;99.90;;;;;;4907042;29;20454;-77
2023/12/14 08:43:03;;;;;;;26.90;10.45;;;4.50;99.90;;;;;;4906982;29;20059;-78
2023/12/14 08:45:29;;;;;;;22.63;11.13;;;4.40;99.90;;;;;;4912876;29;20472;-81
2023/12/14 08:47:55;;;;;;;28.00;11.13;;;5.30;99.90;;;;;;4913331;29;20095;-76
2023/12/14 08:50:20;;;;;;;31.08;11.27;;;5.10;99.90;;;;;;4912957;29;20040;-77
2023/12/14 08:52:46;;;;;;;21.48;10.00;;;4.60;99.90;;;;;;4914176;29;20052;-77
2023/12/14 08:55:13;;;;;;;22.83;10.57;;;5.30;99.90;;;;;;4907403;29;20055;-77
2023/12/14 08:57:39;;;;;;;23.45;10.57;;;5.10;99.90;;;;;;4913971;29;20055;-77
2023/12/14 09:00:06;;;;;;;28.92;10.70;;;4.70;99.90;;;;;;4913960;29;20535;-77
2023/12/14 09:02:32;;;;;;;24.63;10.93;;;4.60;99.90;;;;;;4909169;29;20058;-77
2023/12/14 09:04:58;;;;;;;30.35;11.02;;;4.70;99.90;;;;;;4914123;29;20044;-79
2023/12/14 09:07:24;;;;;;;30.13;11.80;;;4.90;99.90;;;;;;4914072;29;20056;-76
2023/12/14 09:09:50;;;;;;;25.80;11.20;;;5.20;99.90;;;;;;4914132;29;20090;-76
2023/12/14 09:12:16;;;;;;;20.90;10.73;;;4.70;99.90;;;;;;4908705;29;20052;-78
2023/12/14 09:14:41;;;;;;;26.42;11.98;;;5.10;99.90;;;;;;4914051;29;20040;-79
2023/12/14 09:17:07;;;;;;;23.80;10.43;;;5.30;99.90;;;;;;4913493;29;20131;-78
2023/12/14 09:19:33;;;;;;;23.17;11.20;;;4.80;99.90;;;;;;4914009;29;20481;-77
2023/12/14 09:21:59;;;;;;;31.55;11.55;;;4.80;99.90;;;;;;4913775;29;20063;-77
2023/12/14 09:24:24;;;;;;;22.13;11.65;;;4.80;99.90;;;;;;4913741;29;20079;-77
2023/12/14 09:26:50;;;;;;;20.17;9.98;;;4.80;99.90;;;;;;4913548;29;20077;-78
2023/12/14 09:29:16;;;;;;;25.23;11.35;;;5.20;99.90;;;;;;4913597;29;20055;-77
2023/12/14 09:31:46;;;;;;;24.40;11.48;;;4.80;99.90;;;;;;4913742;29;20040;-80
2023/12/14 09:34:12;;;;;;;24.30;11.73;;;5.50;99.90;;;;;;4913710;29;20385;-81
2023/12/14 09:36:38;;;;;;;26.38;10.90;;;4.90;99.90;;;;;;4912227;29;20127;-80
2023/12/14 09:39:05;;;;;;;25.92;11.27;;;5.40;99.90;;;;;;4913807;29;20111;-78
2023/12/14 09:41:31;;;;;;;26.00;11.93;;;4.90;99.90;;;;;;4916585;29;20047;-78
2023/12/14 09:43:58;;;;;;;24.35;12.18;;;5.20;99.90;;;;;;4917640;29;20044;-78
2023/12/14 09:46:25;;;;;;;22.88;10.77;;;4.90;99.90;;;;;;4917637;29;20052;-78
2023/12/14 09:48:52;;;;;;;26.65;11.95;;;5.00;99.90;;;;;;4917121;29;20037;-86
2023/12/14 09:51:18;;;;;;;23.45;11.40;;;5.00;99.90;;;;;;4917621;29;20091;-78
2023/12/14 09:53:44;;;;;;;24.52;11.15;;;5.50;99.90;;;;;;4917756;29;20059;-78
2023/12/14 09:56:10;;;;;;;27.20;12.43;;;5.00;99.90;;;;;;4917297;29;20059;-78
2023/12/14 09:58:36;;;;;;;24.60;11.65;;;5.00;99.90;;;;;;4915810;29;20050;-78
2023/12/14 10:01:04;;;;;;;27.55;12.02;;;5.30;99.90;;;;;;4916956;29;20102;-78
2023/12/14 10:03:31;;;;;;;27.98;11.30;;;5.10;99.90;;;;;;4917201;29;20082;-78
2023/12/14 10:05:59;;;;;;;27.00;11.63;;;5.40;99.90;;;;;;4917417;29;20059;-82
2023/12/14 10:08:26;;;;;;;25.17;10.32;;;5.60;99.90;;;;;;4917208;29;20052;-78
2023/12/14 10:10:53;;;;;;;26.63;11.18;;;5.70;99.90;;;;;;4915802;29;20135;-79
2023/12/14 10:13:46;;;;;;;23.25;11.15;;;5.80;99.90;;;;;;4916611;29;20052;-78
2023/12/14 10:16:12;;;;;;;28.17;12.02;;;5.30;99.90;;;;;;4917029;29;20103;-80
2023/12/14 10:18:38;;;;;;;25.05;11.57;;;5.20;99.90;;;;;;4909281;29;20386;-80
2023/12/14 10:21:07;;;;;;;23.08;11.93;;;5.90;99.90;;;;;;4916533;29;20047;-80
2023/12/14 10:23:34;;;;;;;22.35;10.95;;;6.00;99.90;;;;;;4916462;29;20052;-78
2023/12/14 10:26:00;;;;;;;24.42;11.65;;;5.20;99.90;;;;;;4916568;29;20044;-78
2023/12/14 10:28:27;;;;;;;24.52;11.60;;;5.30;99.90;;;;;;4916769;29;20059;-78
2023/12/14 10:30:52;;;;;;;27.75;11.30;;;5.30;99.90;;;;;;4916540;29;20525;-78
2023/12/14 10:33:18;;;;;;;23.27;10.60;;;5.40;99.90;;;;;;4916707;29;20052;-80
2023/12/14 10:35:46;;;;;;;25.30;11.45;;;6.10;99.90;;;;;;4915992;29;20044;-79
2023/12/14 10:38:14;;;;;;;25.95;11.27;;;5.70;99.90;;;;;;4916426;29;20180;-78
2023/12/14 10:40:43;;;;;;;29.40;11.45;;;6.10;99.90;;;;;;4916243;29;20043;-78
2023/12/14 10:43:10;;;;;;;19.48;11.10;;;5.50;99.90;;;;;;4915088;29;20056;-79
2023/12/14 10:45:38;;;;;;;23.05;11.93;;;6.00;99.90;;;;;;4916418;29;20809;-78
2023/12/14 10:48:04;;;;;;;25.23;12.25;;;5.60;99.90;;;;;;4916229;29;20048;-78
2023/12/14 10:50:30;;;;;;;21.70;11.82;;;5.50;99.90;;;;;;4915109;29;20047;-78
2023/12/14 10:52:58;;;;;;;27.77;13.00;;;6.00;99.90;;;;;;4914797;29;20040;-78
2023/12/14 10:55:44;;;;;;;24.75;12.95;;;5.60;99.90;;;;;;4916375;29;20075;-88
2023/12/14 10:58:11;;;;;;;21.27;12.30;;;5.60;99.90;;;;;;4916313;29;20099;-79
2023/12/14 11:00:38;;;;;;;24.83;13.15;;;5.60;99.90;;;;;;4914972;29;20055;-78
2023/12/14 11:03:05;;;;;;;23.42;12.43;;;5.50;99.90;;;;;;4914648;29;20515;-77
2023/12/14 11:05:33;;;;;;;21.33;12.27;;;5.60;99.90;;;;;;4916077;29;20044;-78
2023/12/14 11:08:09;;;;;;;22.25;12.05;;;5.60;99.90;;;;;;4915269;29;20032;-79
2023/12/14 11:10:43;;;;;;;25.67;11.13;;;5.70;99.90;;;;;;4908865;29;20048;-78
2023/12/14 11:13:13;;;;;;;30.08;11.93;;;5.60;99.90;;;;;;4915953;29;20044;-79
2023/12/14 11:15:45;;;;;;;25.48;11.65;;;6.40;99.90;;;;;;4907431;29;20050;-85
2023/12/14 11:18:10;;;;;;;25.40;11.88;;;5.70;99.90;;;;;;4915800;29;20507;-78
2023/12/14 11:20:45;;;;;;;26.30;13.13;;;5.80;99.90;;;;;;4915759;29;20060;-77
2023/12/14 11:23:21;;;;;;;24.73;12.88;;;5.80;99.90;;;;;;4915225;29;20149;-79
2023/12/14 11:25:56;;;;;;;30.38;14.32;;;5.80;99.90;;;;;;4907934;29;20036;-78
2023/12/14 11:28:22;;;;;;;23.95;11.68;;;6.20;99.90;;;;;;4915530;29;20040;-84
2023/12/14 11:30:48;;;;;;;23.80;10.77;;;5.90;99.90;;;;;;4913972;29;20106;-80
2023/12/14 11:33:16;;;;;;;21.08;10.43;;;6.00;99.90;;;;;;4914227;29;20131;-77
2023/12/14 11:35:41;;;;;;;21.95;11.02;;;5.80;99.90;;;;;;4914223;29;20056;-78
2023/12/14 11:38:12;;;;;;;22.98;10.57;;;6.00;99.90;;;;;;4915300;29;20092;-80
2023/12/14 11:40:48;;;;;;;21.85;11.35;;;6.10;99.90;;;;;;4915743;29;20431;-77
2023/12/14 11:43:15;;;;;;;21.33;11.23;;;6.10;99.90;;;;;;4915493;29;20099;-77
2023/12/14 11:45:41;;;;;;;20.55;10.77;;;6.10;99.90;;;;;;4915453;29;20395;-78
2023/12/14 11:48:10;;;;;;;17.48;9.35;;;6.10;99.90;;;;;;4915576;29;20448;-78
2023/12/14 11:50:37;;;;;;;21.02;10.50;;;6.10;99.90;;;;;;4915312;29;20119;-78
2023/12/14 11:53:03;;;;;;;23.27;10.05;;;6.10;99.90;;;;;;4914349;29;20385;-80
2023/12/14 11:55:32;;;;;;;17.13;10.10;;;6.10;99.90;;;;;;4915199;29;20055;-79
2023/12/14 11:57:58;;;;;;;17.73;10.23;;;6.10;99.90;;;;;;4915197;29;20044;-84
2023/12/14 12:00:26;;;;;;;23.65;10.45;;;6.10;99.90;;;;;;4915214;29;20424;-80
2023/12/14 12:03:06;;;;;;;21.10;11.30;;;6.10;99.90;;;;;;4915066;29;20044;-79
2023/12/14 12:05:51;;;;;;;20.80;11.20;;;6.10;99.90;;;;;;4908645;29;20048;-78
2023/12/14 12:08:19;;;;;;;20.80;10.40;;;6.20;99.90;;;;;;4915184;29;20044;-78
2023/12/14 12:10:46;;;;;;;19.95;10.48;;;6.10;99.90;;;;;;4914939;29;20066;-79
2023/12/14 12:13:20;;;;;;;22.75;10.77;;;6.10;99.90;;;;;;4898342;29;20082;-78
2023/12/14 12:15:47;;;;;;;21.00;9.80;;;6.10;99.90;;;;;;4914909;29;20757;-79
2023/12/14 12:18:14;;;;;;;18.15;9.55;;;6.10;99.90;;;;;;4913641;29;20575;-80
2023/12/14 12:20:40;;;;;;;22.77;11.77;;;6.10;99.90;;;;;;4907043;29;20087;-77
2023/12/14 12:23:06;;;;;;;18.92;10.07;;;6.10;99.90;;;;;;4913637;29;20091;-75
2023/12/14 12:25:32;;;;;;;19.58;12.25;;;6.10;99.90;;;;;;4914175;29;20500;-82
2023/12/14 12:27:59;;;;;;;17.90;9.27;;;6.00;99.90;;;;;;4913453;29;20060;-78
2023/12/14 12:30:25;;;;;;;15.05;9.27;;;6.00;99.90;;;;;;4914031;29;20107;-77
2023/12/14 12:32:51;;;;;;;17.52;9.65;;;6.00;99.90;;;;;;4905307;29;20056;-80
2023/12/14 12:35:21;;;;;;;16.75;9.75;;;6.00;99.90;;;;;;4914270;29;20048;-78
2023/12/14 12:37:46;;;;;;;16.08;9.90;;;6.00;99.90;;;;;;4912392;29;20108;-77
2023/12/14 12:40:12;;;;;;;17.40;9.68;;;5.90;99.90;;;;;;4913079;29;20055;-76